createdAt,value
2022-12-04T00:00:40.994Z,99321.58
2022-12-04T00:03:11.933Z,99323.21
2022-12-04T00:05:42.725Z,99324.48
2022-12-04T00:08:13.612Z,99320.11
2022-12-04T00:10:46.245Z,99325.52
2022-12-04T00:13:17.082Z,99322.98
2022-12-04T00:15:47.946Z,99324.23
2022-12-04T00:18:18.590Z,99324.91
2022-12-04T00:20:49.505Z,99324.86
2022-12-04T00:23:20.309Z,99326.13
2022-12-04T00:25:53.417Z,99327.67
2022-12-04T00:28:24.081Z,99329.33
2022-12-04T00:30:54.808Z,99327.33
2022-12-04T00:33:25.651Z,99332.31
2022-12-04T00:36:02.466Z,99334.04
2022-12-04T00:38:33.258Z,99337.52
2022-12-04T00:41:04.113Z,99334.64
2022-12-04T00:43:35.165Z,99331.05
2022-12-04T00:46:06.327Z,99327.40
2022-12-04T00:48:37.241Z,99323.00
2022-12-04T00:51:09.493Z,99324.71
2022-12-04T00:53:41.168Z,99324.50
2022-12-04T00:56:14.622Z,99321.87
2022-12-04T00:58:45.593Z,99319.13
2022-12-04T01:01:19.097Z,99324.47
2022-12-04T01:03:50.658Z,99324.08
2022-12-04T01:06:24.289Z,99323.00
2022-12-04T01:08:56.592Z,99327.09
2022-12-04T01:11:29.640Z,99327.79
2022-12-04T01:14:01.093Z,99324.55
2022-12-04T01:16:33.677Z,99319.50
2022-12-04T01:19:05.259Z,99314.04
2022-12-04T01:21:37.101Z,99308.92
2022-12-04T01:24:08.899Z,99308.81
2022-12-04T01:26:39.907Z,99306.41
2022-12-04T01:29:10.636Z,99303.98
2022-12-04T01:31:41.436Z,99309.85
2022-12-04T01:34:12.215Z,99306.59
2022-12-04T01:36:43.160Z,99308.02
2022-12-04T01:39:14.004Z,99307.69
2022-12-04T01:41:44.944Z,99302.86
2022-12-04T01:44:18.924Z,99301.39
2022-12-04T01:46:52.555Z,99298.54
2022-12-04T01:49:29.731Z,99298.11
2022-12-04T01:52:03.675Z,99298.75
2022-12-04T01:54:38.073Z,99297.52
2022-12-04T01:57:14.131Z,99290.12
2022-12-04T01:59:49.047Z,99296.43
2022-12-04T02:02:23.799Z,99296.98
2022-12-04T02:04:55.555Z,99296.97
2022-12-04T02:07:26.433Z,99302.98
2022-12-04T02:10:03.681Z,99301.39
2022-12-04T02:12:42.744Z,99289.55
2022-12-04T02:15:18.144Z,99295.52
2022-12-04T02:17:57.336Z,99300.55
2022-12-04T02:20:34.344Z,99303.69
2022-12-04T02:23:30.538Z,99303.99
2022-12-04T02:26:20.028Z,99300.14
2022-12-04T02:28:55.493Z,99300.91
2022-12-04T02:31:34.878Z,99303.94
2022-12-04T02:34:12.272Z,99303.37
2022-12-04T02:36:49.290Z,99300.09
2022-12-04T02:39:24.297Z,99297.64
2022-12-04T02:42:01.599Z,99296.84
2022-12-04T02:44:36.483Z,99290.83
2022-12-04T02:47:12.107Z,99285.77
2022-12-04T02:49:46.654Z,99279.84
2022-12-04T02:52:22.360Z,99281.83
2022-12-04T02:54:58.566Z,99279.02
2022-12-04T02:57:35.216Z,99274.66
2022-12-04T03:00:09.090Z,99272.09
2022-12-04T03:02:47.378Z,99274.03
2022-12-04T03:05:21.715Z,99280.10
2022-12-04T03:07:56.841Z,99278.89
2022-12-04T03:10:30.358Z,99274.39
2022-12-04T03:13:04.920Z,99278.84
2022-12-04T03:15:41.082Z,99274.50
2022-12-04T03:18:15.888Z,99271.95
2022-12-04T03:20:49.291Z,99271.98
2022-12-04T03:23:27.609Z,99273.73
2022-12-04T03:26:03.925Z,99273.72
2022-12-04T03:28:45.269Z,99275.80
2022-12-04T03:31:20.495Z,99270.41
2022-12-04T03:33:56.349Z,99279.66
2022-12-04T03:36:32.502Z,99287.70
2022-12-04T03:39:10.319Z,99289.70
2022-12-04T03:41:54.228Z,99291.96
2022-12-04T03:44:28.461Z,99284.57
2022-12-04T03:47:05.429Z,99281.22
2022-12-04T03:49:52.601Z,99278.36
2022-12-04T03:52:28.458Z,99273.83
2022-12-04T03:55:04.100Z,99272.08
2022-12-04T03:57:40.948Z,99265.35
2022-12-04T04:00:16.000Z,99271.81
2022-12-04T04:02:52.004Z,99268.98
2022-12-04T04:05:25.426Z,99276.40
2022-12-04T04:08:19.670Z,99276.04
2022-12-04T04:10:52.678Z,99272.11
2022-12-04T04:13:44.427Z,99274.13
2022-12-04T04:16:38.082Z,99273.73
2022-12-04T04:19:30.514Z,99274.76
2022-12-04T04:22:21.705Z,99272.85
2022-12-04T04:24:56.221Z,99272.84
2022-12-04T04:27:27.089Z,99276.67
2022-12-04T04:29:58.454Z,99280.47
2022-12-04T04:32:37.660Z,99275.92
2022-12-04T04:35:18.840Z,99275.93
2022-12-04T04:37:58.676Z,99267.88
2022-12-04T04:40:37.342Z,99272.46
2022-12-04T04:43:13.368Z,99273.26
2022-12-04T04:45:47.332Z,99273.52
2022-12-04T04:48:22.709Z,99274.32
2022-12-04T04:50:54.325Z,99275.22
2022-12-04T04:53:30.231Z,99282.05
2022-12-04T04:56:01.600Z,99285.67
2022-12-04T04:58:32.327Z,99281.28
2022-12-04T05:01:05.449Z,99269.00
2022-12-04T05:03:36.360Z,99277.92
2022-12-04T05:06:07.483Z,99281.57
2022-12-04T05:08:39.216Z,99285.65
2022-12-04T05:11:14.709Z,99288.68
2022-12-04T05:13:45.609Z,99290.50
2022-12-04T05:16:18.210Z,99291.77
2022-12-04T05:19:03.023Z,99294.33
2022-12-04T05:21:34.774Z,99288.35
2022-12-04T05:24:05.589Z,99286.73
2022-12-04T05:26:36.533Z,99281.11
2022-12-04T05:29:07.169Z,99269.81
2022-12-04T05:31:38.169Z,99269.61
2022-12-04T05:34:08.955Z,99267.15
2022-12-04T05:36:39.868Z,99270.61
2022-12-04T05:39:10.608Z,99276.50
2022-12-04T05:41:41.378Z,99275.97
2022-12-04T05:44:12.001Z,99277.11
2022-12-04T05:46:42.769Z,99283.80
2022-12-04T05:49:13.500Z,99291.91
2022-12-04T05:51:44.643Z,99290.13
2022-12-04T05:54:15.468Z,99282.92
2022-12-04T05:56:46.262Z,99281.70
2022-12-04T05:59:17.546Z,99293.70
2022-12-04T06:01:48.861Z,99290.71
2022-12-04T06:04:19.491Z,99293.20
2022-12-04T06:06:50.206Z,99291.39
2022-12-04T06:09:20.918Z,99293.34
2022-12-04T06:11:51.556Z,99287.51
2022-12-04T06:14:22.245Z,99290.61
2022-12-04T06:16:52.976Z,99288.70
2022-12-04T06:19:24.359Z,99285.77
2022-12-04T06:21:55.734Z,99288.46
2022-12-04T06:24:27.246Z,99288.70
2022-12-04T06:29:51.753Z,99284.59
2022-12-04T06:32:22.571Z,99283.90
2022-12-04T06:34:57.330Z,99279.54
2022-12-04T06:37:28.001Z,99287.48
2022-12-04T06:39:58.909Z,99292.40
2022-12-04T06:42:29.923Z,99297.98
2022-12-04T06:45:00.616Z,99300.95
2022-12-04T06:47:31.258Z,99300.61
2022-12-04T06:50:01.866Z,99297.59
2022-12-04T06:52:33.242Z,99299.44
2022-12-04T06:55:03.917Z,99300.77
2022-12-04T06:57:34.610Z,99294.63
2022-12-04T07:00:06.037Z,99295.80
2022-12-04T07:02:37.166Z,99289.56
2022-12-04T07:05:09.240Z,99292.47
2022-12-04T07:07:39.982Z,99284.49
2022-12-04T07:10:13.409Z,99286.98
2022-12-04T07:12:44.266Z,99286.20
2022-12-04T07:15:15.977Z,99286.41
2022-12-04T07:17:46.793Z,99279.77
2022-12-04T07:20:18.069Z,99281.59
2022-12-04T07:22:49.055Z,99282.42
2022-12-04T07:25:20.198Z,99278.29
2022-12-04T07:27:51.125Z,99288.45
2022-12-04T07:30:21.986Z,99292.00
2022-12-04T07:32:52.689Z,99289.90
2022-12-04T07:35:23.428Z,99294.86
2022-12-04T07:37:54.203Z,99296.79
2022-12-04T07:40:25.137Z,99292.59
2022-12-04T07:42:55.978Z,99299.21
2022-12-04T07:45:26.688Z,99303.30
2022-12-04T07:47:57.379Z,99305.42
2022-12-04T07:50:28.199Z,99304.13
2022-12-04T07:52:58.954Z,99302.23
2022-12-04T07:55:29.810Z,99304.58
2022-12-04T07:58:01.019Z,99309.18
2022-12-04T08:00:31.796Z,99302.36
2022-12-04T08:03:03.210Z,99291.89
2022-12-04T08:05:34.669Z,99293.07
2022-12-04T08:08:06.375Z,99296.58
2022-12-04T08:10:37.167Z,99306.55
2022-12-04T08:13:09.540Z,99304.34
2022-12-04T08:15:40.383Z,99306.48
2022-12-04T08:18:11.424Z,99307.36
2022-12-04T08:20:42.465Z,99311.92
2022-12-04T08:23:13.417Z,99312.18
2022-12-04T08:25:44.547Z,99303.52
2022-12-04T08:28:15.344Z,99299.21
2022-12-04T08:30:46.062Z,99302.67
2022-12-04T08:33:16.916Z,99304.23
2022-12-04T08:35:47.779Z,99303.05
2022-12-04T08:38:18.658Z,99304.23
2022-12-04T08:40:49.662Z,99305.44
2022-12-04T08:43:20.558Z,99315.84
2022-12-04T08:45:59.872Z,99317.50
2022-12-04T08:48:31.142Z,99312.63
2022-12-04T08:51:04.116Z,99316.98
2022-12-04T08:53:36.434Z,99315.72
2022-12-04T08:56:08.160Z,99306.11
2022-12-04T08:58:39.430Z,99311.69
2022-12-04T09:01:12.702Z,99309.89
2022-12-04T09:03:44.894Z,99315.40
2022-12-04T09:06:17.464Z,99314.80
2022-12-04T09:08:48.283Z,99316.02
2022-12-04T09:11:21.501Z,99321.14
2022-12-04T09:13:52.860Z,99318.21
2022-12-04T09:16:25.293Z,99316.77
2022-12-04T09:18:57.655Z,99308.14
2022-12-04T09:21:28.340Z,99303.13
2022-12-04T09:24:00.048Z,99304.63
2022-12-04T09:26:33.561Z,99299.45
2022-12-04T09:29:06.330Z,99292.52
2022-12-04T09:31:38.904Z,99290.83
2022-12-04T09:34:09.898Z,99291.70
2022-12-04T09:36:41.301Z,99294.34
2022-12-04T09:39:13.163Z,99295.59
2022-12-04T09:42:14.019Z,99293.54
2022-12-04T09:44:51.111Z,99296.75
2022-12-04T09:47:27.720Z,99287.19
2022-12-04T09:50:04.745Z,99297.89
2022-12-04T09:52:51.014Z,99292.13
2022-12-04T09:55:27.335Z,99290.43
2022-12-04T09:58:02.573Z,99287.48
2022-12-04T10:00:38.092Z,99277.13
2022-12-04T10:03:15.378Z,99282.70
2022-12-04T10:06:05.864Z,99279.73
2022-12-04T10:08:39.638Z,99277.90
2022-12-04T10:11:13.730Z,99277.79
2022-12-04T10:14:18.386Z,99285.34
2022-12-04T10:17:15.306Z,99278.10
2022-12-04T10:19:53.425Z,99281.19
2022-12-04T10:22:31.052Z,99279.91
2022-12-04T10:25:07.231Z,99272.17
2022-12-04T10:27:46.080Z,99264.20
2022-12-04T10:30:21.153Z,99264.02
2022-12-04T10:32:58.053Z,99263.48
2022-12-04T10:35:31.842Z,99261.50
2022-12-04T10:38:03.317Z,99264.46
2022-12-04T10:40:39.021Z,99266.84
2022-12-04T10:43:21.777Z,99268.75
2022-12-04T10:45:52.904Z,99269.28
2022-12-04T10:48:27.754Z,99268.15
2022-12-04T10:50:58.983Z,99261.39
2022-12-04T10:53:33.008Z,99262.45
2022-12-04T10:56:13.704Z,99258.59
2022-12-04T10:58:44.958Z,99257.08
2022-12-04T11:01:17.465Z,99254.48
2022-12-04T11:03:56.586Z,99256.27
2022-12-04T11:06:29.812Z,99255.85
2022-12-04T11:09:02.515Z,99253.58
2022-12-04T11:11:35.375Z,99259.74
2022-12-04T11:14:09.090Z,99262.69
2022-12-04T11:16:40.423Z,99263.48
2022-12-04T11:19:29.721Z,99261.24
2022-12-04T11:22:05.677Z,99257.77
2022-12-04T11:24:38.507Z,99255.58
2022-12-04T11:27:18.287Z,99248.61
2022-12-04T11:29:48.828Z,99249.77
2022-12-04T11:32:25.438Z,99246.31
2022-12-04T11:35:00.636Z,99251.27
2022-12-04T11:37:35.869Z,99246.30
2022-12-04T11:40:20.044Z,99251.14
2022-12-04T11:43:03.751Z,99246.31
2022-12-04T11:45:35.238Z,99237.39
2022-12-04T11:48:14.723Z,99241.58
2022-12-04T11:50:51.941Z,99249.68
2022-12-04T11:53:29.872Z,99244.23
2022-12-04T11:56:17.575Z,99241.96
2022-12-04T11:59:04.638Z,99236.81
2022-12-04T12:01:47.315Z,99231.55
2022-12-04T12:04:36.784Z,99237.77
2022-12-04T12:07:18.101Z,99229.42
2022-12-04T12:09:55.924Z,99231.33
2022-12-04T12:12:38.112Z,99239.29
2022-12-04T12:15:20.498Z,99238.72
2022-12-04T12:17:56.366Z,99237.14
2022-12-04T12:20:32.750Z,99236.31
2022-12-04T12:23:24.133Z,99235.96
2022-12-04T12:26:04.451Z,99230.04
2022-12-04T12:28:56.145Z,99226.45
2022-12-04T12:31:47.708Z,99218.48
2022-12-04T12:34:24.407Z,99226.19
2022-12-04T12:37:00.741Z,99232.36
2022-12-04T12:39:40.334Z,99233.42
2022-12-04T12:42:19.147Z,99233.46
2022-12-04T12:44:57.142Z,99236.30
2022-12-04T12:47:32.163Z,99233.61
2022-12-04T12:50:06.717Z,99228.23
2022-12-04T12:52:44.730Z,99232.55
2022-12-04T12:55:21.245Z,99219.77
2022-12-04T12:57:59.844Z,99216.15
2022-12-04T13:00:38.734Z,99228.45
2022-12-04T13:03:27.528Z,99232.66
2022-12-04T13:06:03.070Z,99230.39
2022-12-04T13:08:43.521Z,99229.52
2022-12-04T13:11:19.667Z,99223.05
2022-12-04T13:13:53.663Z,99225.81
2022-12-04T13:16:28.090Z,99221.20
2022-12-04T13:19:10.249Z,99223.70
2022-12-04T13:21:46.782Z,99219.77
2022-12-04T13:24:57.197Z,99225.81
2022-12-04T13:27:39.022Z,99223.73
2022-12-04T13:30:20.265Z,99219.47
2022-12-04T13:33:25.184Z,99222.09
2022-12-04T13:36:24.369Z,99226.39
2022-12-04T13:39:20.962Z,99222.91
2022-12-04T13:42:00.063Z,99224.23
2022-12-04T13:44:32.709Z,99224.56
2022-12-04T13:47:06.353Z,99218.71
2022-12-04T13:49:38.687Z,99219.70
2022-12-04T13:52:25.962Z,99215.80
2022-12-04T13:55:01.353Z,99214.42
2022-12-04T13:57:32.163Z,99214.65
2022-12-04T14:00:25.911Z,99212.14
2022-12-04T14:03:00.265Z,99215.21
2022-12-04T14:05:33.979Z,99219.16
2022-12-04T14:08:08.674Z,99220.58
2022-12-04T14:10:41.495Z,99221.70
2022-12-04T14:13:22.458Z,99216.98
2022-12-04T14:16:08.015Z,99218.01
2022-12-04T14:18:39.337Z,99218.09
2022-12-04T14:21:10.334Z,99217.05
2022-12-04T14:23:44.011Z,99213.90
2022-12-04T14:26:48.904Z,99215.84
2022-12-04T14:29:36.559Z,99214.35
2022-12-04T14:32:16.113Z,99210.16
2022-12-04T14:34:48.523Z,99206.20
2022-12-04T14:37:26.660Z,99204.41
2022-12-04T14:39:59.452Z,99207.30
2022-12-04T14:42:35.248Z,99208.42
2022-12-04T14:45:18.925Z,99206.68
2022-12-04T14:48:03.619Z,99206.99
2022-12-04T14:50:45.619Z,99213.31
2022-12-04T14:53:25.206Z,99217.27
2022-12-04T14:56:07.769Z,99216.05
2022-12-04T14:58:41.100Z,99215.78
2022-12-04T15:01:28.651Z,99218.80
2022-12-04T15:04:07.426Z,99212.73
2022-12-04T15:06:40.390Z,99211.02
2022-12-04T15:09:38.449Z,99204.48
2022-12-04T15:12:34.989Z,99207.61
2022-12-04T15:15:16.366Z,99207.88
2022-12-04T15:17:56.326Z,99206.49
2022-12-04T15:20:29.902Z,99207.18
2022-12-04T15:23:03.666Z,99202.14
2022-12-04T15:25:41.440Z,99205.86
2022-12-04T15:28:18.502Z,99210.29
2022-12-04T15:30:51.323Z,99207.20
2022-12-04T15:33:25.543Z,99208.07
2022-12-04T15:36:01.734Z,99208.52
2022-12-04T15:38:33.124Z,99203.48
2022-12-04T15:41:04.674Z,99203.47
2022-12-04T15:43:42.915Z,99201.09
2022-12-04T15:46:22.969Z,99198.00
2022-12-04T15:49:05.484Z,99190.10
2022-12-04T15:51:36.533Z,99195.73
2022-12-04T15:54:13.828Z,99193.69
2022-12-04T15:56:45.518Z,99197.14
2022-12-04T15:59:19.967Z,99196.77
2022-12-04T16:01:51.212Z,99198.80
2022-12-04T16:04:30.078Z,99201.67
2022-12-04T16:07:01.235Z,99206.14
2022-12-04T16:09:32.548Z,99211.21
2022-12-04T16:12:17.275Z,99206.64
2022-12-04T16:14:48.229Z,99208.90
2022-12-04T16:17:19.373Z,99208.89
2022-12-04T16:19:50.962Z,99209.97
2022-12-04T16:22:24.781Z,99212.19
2022-12-04T16:24:57.236Z,99206.25
2022-12-04T16:27:29.082Z,99209.34
2022-12-04T16:30:00.298Z,99212.21
2022-12-04T16:32:34.028Z,99209.48
2022-12-04T16:35:05.021Z,99211.45
2022-12-04T16:37:35.735Z,99213.36
2022-12-04T16:40:08.821Z,99215.61
2022-12-04T16:42:39.960Z,99214.02
2022-12-04T16:45:24.281Z,99214.16
2022-12-04T16:47:55.162Z,99215.06
2022-12-04T16:50:26.786Z,99208.14
2022-12-04T16:52:59.406Z,99203.02
2022-12-04T16:55:35.214Z,99198.09
2022-12-04T16:58:06.445Z,99192.73
2022-12-04T17:00:37.587Z,99192.75
2022-12-04T17:03:10.437Z,99196.61
2022-12-04T17:05:41.185Z,99196.70
2022-12-04T17:08:12.063Z,99198.73
2022-12-04T17:10:42.968Z,99195.80
2022-12-04T17:13:14.075Z,99198.90
2022-12-04T17:15:45.368Z,99191.85
2022-12-04T17:18:21.098Z,99192.89
2022-12-04T17:20:52.863Z,99183.09
2022-12-04T17:23:23.699Z,99185.48
2022-12-04T17:25:54.933Z,99184.35
2022-12-04T17:28:25.891Z,99178.00
2022-12-04T17:30:56.761Z,99183.59
2022-12-04T17:33:27.642Z,99187.48
2022-12-04T17:36:00.392Z,99181.85
2022-12-04T17:38:31.197Z,99182.42
2022-12-04T17:41:03.675Z,99181.71
2022-12-04T17:43:35.333Z,99180.98
2022-12-04T17:46:12.281Z,99181.81
2022-12-04T17:48:43.357Z,99186.50
2022-12-04T17:51:16.458Z,99188.77
2022-12-04T17:53:48.102Z,99191.06
2022-12-04T17:56:22.563Z,99184.63
2022-12-04T17:58:54.720Z,99183.86
2022-12-04T18:01:27.952Z,99187.39
2022-12-04T18:04:00.712Z,99182.54
2022-12-04T18:06:32.789Z,99181.05
2022-12-04T18:09:04.707Z,99175.39
2022-12-04T18:11:37.752Z,99176.88
2022-12-04T18:14:12.555Z,99173.80
2022-12-04T18:16:46.438Z,99170.77
2022-12-04T18:19:16.530Z,99161.84
2022-12-04T18:21:47.303Z,99155.72
2022-12-04T18:24:19.165Z,99146.48
2022-12-04T18:26:51.406Z,99148.52
2022-12-04T18:29:24.006Z,99149.20
2022-12-04T18:31:55.682Z,99149.48
2022-12-04T18:34:26.924Z,99144.23
2022-12-04T18:36:57.660Z,99144.96
2022-12-04T18:39:28.921Z,99140.95
2022-12-04T18:41:59.976Z,99141.21
2022-12-04T18:44:31.218Z,99141.33
2022-12-04T18:47:02.604Z,99139.70
2022-12-04T18:49:34.157Z,99136.54
2022-12-04T18:52:05.558Z,99131.30
2022-12-04T18:54:37.059Z,99125.85
2022-12-04T18:57:08.383Z,99123.02
2022-12-04T18:59:39.734Z,99123.53
2022-12-04T19:02:13.018Z,99127.64
2022-12-04T19:04:44.360Z,99124.65
2022-12-04T19:07:15.432Z,99126.41
2022-12-04T19:12:37.803Z,99129.08
2022-12-04T19:15:10.399Z,99133.00
2022-12-04T19:17:41.603Z,99135.74
2022-12-04T19:20:14.062Z,99142.64
2022-12-04T19:22:45.819Z,99143.84
2022-12-04T19:25:16.816Z,99145.12
2022-12-04T19:27:47.731Z,99143.55
2022-12-04T19:30:18.870Z,99142.73
2022-12-04T19:32:50.220Z,99151.35
2022-12-04T19:35:21.333Z,99151.75
2022-12-04T19:37:54.386Z,99153.95
2022-12-04T19:40:26.682Z,99156.84
2022-12-04T19:43:02.840Z,99163.27
2022-12-04T19:45:35.417Z,99162.48
2022-12-04T19:48:08.367Z,99164.67
2022-12-04T19:50:40.957Z,99163.14
2022-12-04T19:53:12.179Z,99160.13
2022-12-04T19:55:44.176Z,99158.95
2022-12-04T19:58:15.207Z,99156.95
2022-12-04T20:00:50.282Z,99150.52
2022-12-04T20:03:21.690Z,99149.86
2022-12-04T20:05:53.368Z,99143.41
2022-12-04T20:08:24.401Z,99144.37
2022-12-04T20:10:56.940Z,99141.00
2022-12-04T20:13:29.313Z,99138.41
2022-12-04T20:16:05.062Z,99138.77
2022-12-04T20:18:37.499Z,99134.65
2022-12-04T20:21:11.264Z,99127.65
2022-12-04T20:23:43.971Z,99120.82
2022-12-04T20:26:17.205Z,99123.31
2022-12-04T20:28:48.753Z,99114.66
2022-12-04T20:31:22.315Z,99123.18
2022-12-04T20:33:52.528Z,99124.19
2022-12-04T20:36:25.652Z,99126.23
2022-12-04T20:38:59.449Z,99122.56
2022-12-04T20:41:32.463Z,99122.05
2022-12-04T20:44:06.622Z,99122.26
2022-12-04T20:46:40.233Z,99124.95
2022-12-04T20:49:13.471Z,99124.11
2022-12-04T20:51:49.431Z,99125.69
2022-12-04T20:54:23.177Z,99126.59
2022-12-04T20:56:53.922Z,99120.79
2022-12-04T20:59:26.213Z,99117.41
2022-12-04T21:01:57.236Z,99119.84
2022-12-04T21:04:28.121Z,99121.00
2022-12-04T21:06:59.482Z,99112.54
2022-12-04T21:09:31.030Z,99114.19
2022-12-04T21:12:02.169Z,99113.59
2022-12-04T21:14:51.880Z,99109.09
2022-12-04T21:17:22.689Z,99103.00
2022-12-04T21:19:53.813Z,99096.11
2022-12-04T21:22:24.679Z,99094.02
2022-12-04T21:24:55.929Z,99091.56
2022-12-04T21:27:26.796Z,99095.98
2022-12-04T21:29:57.882Z,99107.16
2022-12-04T21:32:29.150Z,99111.33
2022-12-04T21:35:01.667Z,99115.98
2022-12-04T21:37:32.422Z,99122.13
2022-12-04T21:40:04.035Z,99119.95
2022-12-04T21:42:35.512Z,99120.81
2022-12-04T21:45:09.494Z,99121.58
2022-12-04T21:47:40.549Z,99118.41
2022-12-04T21:50:12.390Z,99124.33
2022-12-04T21:52:43.059Z,99131.45
2022-12-04T21:55:13.994Z,99137.02
2022-12-04T21:57:44.797Z,99141.69
2022-12-04T22:00:17.518Z,99142.84
2022-12-04T22:02:48.401Z,99141.70
2022-12-04T22:05:19.504Z,99138.64
2022-12-04T22:07:50.311Z,99135.75
2022-12-04T22:10:20.866Z,99135.52
2022-12-04T22:12:53.514Z,99132.45
2022-12-04T22:15:24.267Z,99127.77
2022-12-04T22:17:54.974Z,99128.09
2022-12-04T22:20:25.641Z,99123.73
2022-12-04T22:22:56.291Z,99116.19
2022-12-04T22:25:27.246Z,99115.66
2022-12-04T22:27:58.472Z,99112.26
2022-12-04T22:30:30.674Z,99116.77
2022-12-04T22:33:01.406Z,99114.94
2022-12-04T22:35:33.239Z,99109.94
2022-12-04T22:38:04.290Z,99111.21
2022-12-04T22:40:35.152Z,99111.44
2022-12-04T22:43:05.869Z,99109.90
2022-12-04T22:45:37.025Z,99102.40
2022-12-04T22:48:08.337Z,99099.52
2022-12-04T22:50:39.126Z,99096.13
2022-12-04T22:53:09.968Z,99090.05
2022-12-04T22:55:40.723Z,99088.22
2022-12-04T22:58:11.349Z,99082.58
2022-12-04T23:00:42.081Z,99078.01
2022-12-04T23:03:12.799Z,99075.50
2022-12-04T23:05:43.632Z,99081.36
2022-12-04T23:08:14.434Z,99076.51
2022-12-04T23:10:45.234Z,99077.75
2022-12-04T23:13:15.874Z,99079.12
2022-12-04T23:15:46.521Z,99088.10
2022-12-04T23:18:17.201Z,99087.95
2022-12-04T23:20:47.878Z,99091.98
2022-12-04T23:23:18.617Z,99097.59
2022-12-04T23:25:49.240Z,99102.09
2022-12-04T23:28:19.893Z,99104.33
2022-12-04T23:30:50.600Z,99111.21
2022-12-04T23:33:21.177Z,99108.17
2022-12-04T23:35:55.343Z,99108.98
2022-12-04T23:38:27.341Z,99105.27
2022-12-04T23:41:05.366Z,99112.73
2022-12-04T23:43:37.008Z,99110.75
2022-12-04T23:46:11.286Z,99116.75
2022-12-04T23:48:43.607Z,99118.17
2022-12-04T23:51:16.474Z,99118.02
2022-12-04T23:53:47.843Z,99117.29
2022-12-04T23:56:20.518Z,99114.55
2022-12-04T23:58:53.620Z,99116.31
